PWSweather.com
Personal Weather Stations
Station Observations
COONRAPIDS
Minneapolis, MN 55433

Minneapolis, MN 55433

Lat: 45.187721, Lon: -93.36828

Elevation: 898

Station Type: Davis Vantage Pro 2

High Low Average
Temperature 27.6°F-2.4°C 0.1°F-17.7°C 15.6°F-9.1°C
Dew Point 16.6°F-8.6°C -5.2°F-20.7°C 6.0°F-14.4°C
Winds 6.9 mph 11.1 kmh Calm Calm 1.0 mph SSW1.6 kmh SSW
Wind Gusts 11.5 mph18.5 kmh -- 3.0 mph4.8 kmh
Humidity 78% 50% 66%
Pressure 30.58 in1035.6 mb 30.07 in1018.3 mb -
Precipitation 0.00 in0.0 mm - -
Hour Temp Dew Point Humidity Winds Wind Gusts Pressure Precip Precip Rate Daily Precip Total
12:00 AM -0.2°F-17.9°C -5.4°F-20.8°C 78% Calm Calm -- 30.63 in1037.3 mb - 0.00 in0.0 mm 0.00 in0.0 mm
12:10 AM 0.0°F-17.8°C -5.2°F-20.7°C 78% 1.2 mph S1.9 kmh S 3.5 mph5.6 kmh 30.59 in1035.9 mb - 0.00 in0.0 mm 0.00 in0.0 mm
12:20 AM 0.2°F-17.7°C -5.0°F-20.6°C 78% Calm Calm -- 30.59 in1035.9 mb - 0.00 in0.0 mm 0.00 in0.0 mm
12:30 AM 0.2°F-17.7°C -5.0°F-20.6°C 78% Calm Calm -- 30.60 in1036.2 mb - 0.00 in0.0 mm 0.00 in0.0 mm
12:40 AM 0.3°F-17.6°C -4.9°F-20.5°C 78% Calm Calm -- 30.60 in1036.2 mb - 0.00 in0.0 mm 0.00 in0.0 mm
12:50 AM 0.3°F-17.6°C -5.0°F-20.6°C 78% Calm Calm -- 30.59 in1035.9 mb - 0.00 in0.0 mm 0.00 in0.0 mm
01:00 AM 0.3°F-17.6°C -4.9°F-20.5°C 78% Calm Calm -- 30.58 in1035.6 mb - 0.00 in0.0 mm 0.00 in0.0 mm
01:10 AM 0.1°F-17.7°C -5.1°F-20.6°C 78% Calm Calm -- 30.58 in1035.6 mb - 0.00 in0.0 mm 0.00 in0.0 mm
01:20 AM 0.1°F-17.7°C -5.1°F-20.6°C 78% Calm Calm -- 30.58 in1035.6 mb - 0.00 in0.0 mm 0.00 in0.0 mm
01:30 AM 0.1°F-17.7°C -5.2°F-20.7°C 78% Calm Calm -- 30.58 in1035.6 mb - 0.00 in0.0 mm 0.00 in0.0 mm
01:40 AM 0.2°F-17.7°C -5.1°F-20.6°C 78% Calm Calm -- 30.57 in1035.2 mb - 0.00 in0.0 mm 0.00 in0.0 mm
01:50 AM 0.4°F-17.6°C -4.8°F-20.4°C 78% Calm Calm -- 30.57 in1035.2 mb - 0.00 in0.0 mm 0.00 in0.0 mm
02:00 AM 0.9°F-17.3°C -4.4°F-20.2°C 78% Calm Calm -- 30.56 in1034.9 mb - 0.00 in0.0 mm 0.00 in0.0 mm
02:10 AM 1.4°F-17.0°C -3.9°F-19.9°C 78% Calm Calm -- 30.56 in1034.9 mb - 0.00 in0.0 mm 0.00 in0.0 mm
02:20 AM 1.5°F-16.9°C -3.7°F-19.8°C 78% Calm Calm -- 30.55 in1034.5 mb - 0.00 in0.0 mm 0.00 in0.0 mm
02:30 AM 1.7°F-16.8°C -3.6°F-19.8°C 78% Calm Calm 2.3 mph3.7 kmh 30.55 in1034.5 mb - 0.00 in0.0 mm 0.00 in0.0 mm
02:40 AM 1.9°F-16.7°C -3.6°F-19.8°C 77% Calm Calm -- 30.55 in1034.5 mb - 0.00 in0.0 mm 0.00 in0.0 mm
02:50 AM 1.8°F-16.8°C -3.7°F-19.8°C 77% Calm Calm 2.3 mph3.7 kmh 30.54 in1034.2 mb - 0.00 in0.0 mm 0.00 in0.0 mm
03:00 AM 2.0°F-16.7°C -3.6°F-19.8°C 77% Calm Calm 2.3 mph3.7 kmh 30.54 in1034.2 mb - 0.00 in0.0 mm 0.00 in0.0 mm
03:10 AM 2.2°F-16.6°C -3.4°F-19.7°C 77% Calm Calm 3.5 mph5.6 kmh 30.54 in1034.2 mb - 0.00 in0.0 mm 0.00 in0.0 mm
03:20 AM 2.0°F-16.7°C -3.6°F-19.8°C 77% Calm Calm 1.2 mph1.9 kmh 30.53 in1033.9 mb - 0.00 in0.0 mm 0.00 in0.0 mm
03:30 AM 2.0°F-16.7°C -3.6°F-19.8°C 77% Calm Calm -- 30.53 in1033.9 mb - 0.00 in0.0 mm 0.00 in0.0 mm
03:40 AM 1.9°F-16.7°C -3.7°F-19.8°C 77% Calm Calm -- 30.53 in1033.9 mb - 0.00 in0.0 mm 0.00 in0.0 mm
03:50 AM 1.9°F-16.7°C -3.7°F-19.8°C 77% Calm Calm -- 30.53 in1033.9 mb - 0.00 in0.0 mm 0.00 in0.0 mm
04:00 AM 1.7°F-16.8°C -4.2°F-20.1°C 76% Calm Calm -- 30.52 in1033.5 mb - 0.00 in0.0 mm 0.00 in0.0 mm
04:10 AM 1.4°F-17.0°C -4.4°F-20.2°C 76% Calm Calm -- 30.52 in1033.5 mb - 0.00 in0.0 mm 0.00 in0.0 mm
04:20 AM 1.7°F-16.8°C -4.2°F-20.1°C 76% Calm Calm -- 30.51 in1033.2 mb - 0.00 in0.0 mm 0.00 in0.0 mm
04:30 AM 1.9°F-16.7°C -3.9°F-19.9°C 76% Calm Calm -- 30.51 in1033.2 mb - 0.00 in0.0 mm 0.00 in0.0 mm
04:40 AM 2.3°F-16.5°C -3.5°F-19.7°C 76% Calm Calm -- 30.50 in1032.8 mb - 0.00 in0.0 mm 0.00 in0.0 mm
04:50 AM 2.4°F-16.4°C -3.7°F-19.8°C 75% Calm Calm -- 30.49 in1032.5 mb - 0.00 in0.0 mm 0.00 in0.0 mm
05:00 AM 2.5°F-16.4°C -3.6°F-19.8°C 75% Calm Calm -- 30.49 in1032.5 mb - 0.00 in0.0 mm 0.00 in0.0 mm
05:10 AM 2.7°F-16.3°C -3.4°F-19.7°C 75% Calm Calm -- 30.49 in1032.5 mb - 0.00 in0.0 mm 0.00 in0.0 mm
05:20 AM 2.6°F-16.3°C -3.8°F-19.9°C 74% Calm Calm -- 30.48 in1032.2 mb - 0.00 in0.0 mm 0.00 in0.0 mm
05:30 AM 2.8°F-16.2°C -3.6°F-19.8°C 74% Calm Calm -- 30.48 in1032.2 mb - 0.00 in0.0 mm 0.00 in0.0 mm
05:40 AM 3.2°F-16.0°C -3.2°F-19.6°C 74% 1.2 mph S1.9 kmh S 2.3 mph3.7 kmh 30.48 in1032.2 mb - 0.00 in0.0 mm 0.00 in0.0 mm
05:50 AM 3.6°F-15.8°C -3.1°F-19.5°C 73% Calm Calm -- 30.48 in1032.2 mb - 0.00 in0.0 mm 0.00 in0.0 mm
06:00 AM 3.7°F-15.7°C -3.0°F-19.4°C 73% Calm Calm -- 30.48 in1032.2 mb - 0.00 in0.0 mm 0.00 in0.0 mm
06:10 AM 3.9°F-15.6°C -3.1°F-19.5°C 72% 1.2 mph S1.9 kmh S 1.2 mph1.9 kmh 30.47 in1031.8 mb - 0.00 in0.0 mm 0.00 in0.0 mm
06:20 AM 3.8°F-15.7°C -3.2°F-19.6°C 72% Calm Calm -- 30.48 in1032.2 mb - 0.00 in0.0 mm 0.00 in0.0 mm
06:30 AM 3.8°F-15.7°C -3.2°F-19.6°C 72% Calm Calm -- 30.47 in1031.8 mb - 0.00 in0.0 mm 0.00 in0.0 mm
06:40 AM 3.4°F-15.9°C -3.6°F-19.8°C 72% Calm Calm -- 30.46 in1031.5 mb - 0.00 in0.0 mm 0.00 in0.0 mm
06:50 AM 3.7°F-15.7°C -3.0°F-19.4°C 73% 2.3 mph S3.7 kmh S 3.5 mph5.6 kmh 30.45 in1031.2 mb - 0.00 in0.0 mm 0.00 in0.0 mm
07:00 AM 4.0°F-15.6°C -2.7°F-19.3°C 73% Calm Calm 3.5 mph5.6 kmh 30.45 in1031.2 mb - 0.00 in0.0 mm 0.00 in0.0 mm
07:10 AM 4.2°F-15.4°C -2.8°F-19.3°C 72% 1.2 mph S1.9 kmh S 3.5 mph5.6 kmh 30.45 in1031.2 mb - 0.00 in0.0 mm 0.00 in0.0 mm
07:20 AM 4.3°F-15.4°C -2.7°F-19.3°C 72% 1.2 mph S1.9 kmh S 3.5 mph5.6 kmh 30.44 in1030.8 mb - 0.00 in0.0 mm 0.00 in0.0 mm
07:30 AM 4.3°F-15.4°C -2.7°F-19.3°C 72% Calm Calm -- 30.44 in1030.8 mb - 0.00 in0.0 mm 0.00 in0.0 mm
07:40 AM 4.4°F-15.3°C -2.6°F-19.2°C 72% Calm Calm 3.5 mph5.6 kmh 30.43 in1030.5 mb - 0.00 in0.0 mm 0.00 in0.0 mm
07:50 AM 4.6°F-15.2°C -2.4°F-19.1°C 72% 1.2 mph S1.9 kmh S 3.5 mph5.6 kmh 30.43 in1030.5 mb - 0.00 in0.0 mm 0.00 in0.0 mm
08:00 AM 4.7°F-15.2°C -2.3°F-19.1°C 72% 1.2 mph S1.9 kmh S 2.3 mph3.7 kmh 30.42 in1030.1 mb - 0.00 in0.0 mm 0.00 in0.0 mm
08:10 AM 4.9°F-15.1°C -2.2°F-19.0°C 72% 1.2 mph S1.9 kmh S 3.5 mph5.6 kmh 30.41 in1029.8 mb - 0.00 in0.0 mm 0.00 in0.0 mm
08:20 AM 5.1°F-14.9°C -2.0°F-18.9°C 72% 2.3 mph S3.7 kmh S 3.5 mph5.6 kmh 30.40 in1029.5 mb - 0.00 in0.0 mm 0.00 in0.0 mm
08:30 AM 5.2°F-14.9°C -1.9°F-18.8°C 72% Calm Calm 2.3 mph3.7 kmh 30.40 in1029.5 mb - 0.00 in0.0 mm 0.00 in0.0 mm
08:40 AM 5.4°F-14.8°C -1.7°F-18.7°C 72% 3.5 mph S5.6 kmh S 3.5 mph5.6 kmh 30.40 in1029.5 mb - 0.00 in0.0 mm 0.00 in0.0 mm
08:50 AM 5.6°F-14.7°C -1.5°F-18.6°C 72% 2.3 mph S3.7 kmh S 3.5 mph5.6 kmh 30.39 in1029.1 mb - 0.00 in0.0 mm 0.00 in0.0 mm
09:00 AM 5.8°F-14.6°C -1.3°F-18.5°C 72% 2.3 mph S3.7 kmh S 3.5 mph5.6 kmh 30.38 in1028.8 mb - 0.00 in0.0 mm 0.00 in0.0 mm
09:10 AM 6.0°F-14.4°C -1.1°F-18.4°C 72% 2.3 mph S3.7 kmh S 3.5 mph5.6 kmh 30.38 in1028.8 mb - 0.00 in0.0 mm 0.00 in0.0 mm
09:20 AM 6.2°F-14.3°C -0.9°F-18.3°C 72% 2.3 mph S3.7 kmh S 3.5 mph5.6 kmh 30.37 in1028.4 mb - 0.00 in0.0 mm 0.00 in0.0 mm
09:30 AM 6.6°F-14.1°C -0.8°F-18.2°C 71% 3.5 mph S5.6 kmh S 3.5 mph5.6 kmh 30.37 in1028.4 mb - 0.00 in0.0 mm 0.00 in0.0 mm
09:40 AM 7.2°F-13.8°C -0.3°F-17.9°C 71% 2.3 mph S3.7 kmh S 3.5 mph5.6 kmh 30.37 in1028.4 mb - 0.00 in0.0 mm 0.00 in0.0 mm
09:50 AM 7.6°F-13.6°C 0.2°F-17.7°C 71% 2.3 mph S3.7 kmh S 3.5 mph5.6 kmh 30.37 in1028.4 mb - 0.00 in0.0 mm 0.00 in0.0 mm
10:00 AM 8.3°F-13.2°C 0.5°F-17.5°C 70% 3.5 mph S5.6 kmh S 4.6 mph7.4 kmh 30.36 in1028.1 mb - 0.00 in0.0 mm 0.00 in0.0 mm
10:10 AM 9.2°F-12.7°C 1.0°F-17.2°C 69% 1.2 mph S1.9 kmh S 4.6 mph7.4 kmh 30.36 in1028.1 mb - 0.00 in0.0 mm 0.00 in0.0 mm
10:20 AM 10.2°F-12.1°C 1.7°F-16.8°C 68% 2.3 mph SW3.7 kmh SW 4.6 mph7.4 kmh 30.35 in1027.8 mb - 0.00 in0.0 mm 0.00 in0.0 mm
10:30 AM 11.6°F-11.3°C 2.4°F-16.4°C 66% 2.3 mph SW3.7 kmh SW 5.8 mph9.3 kmh 30.36 in1028.1 mb - 0.00 in0.0 mm 0.00 in0.0 mm
10:40 AM 12.5°F-10.8°C 2.9°F-16.2°C 65% 2.3 mph SW3.7 kmh SW 2.3 mph3.7 kmh 30.35 in1027.8 mb - 0.00 in0.0 mm 0.00 in0.0 mm
10:50 AM 13.0°F-10.6°C 2.7°F-16.3°C 63% 1.2 mph S1.9 kmh S -- 30.35 in1027.8 mb - 0.00 in0.0 mm 0.00 in0.0 mm
11:00 AM 13.2°F-10.4°C 2.9°F-16.2°C 63% 3.5 mph SW5.6 kmh SW 11.5 mph18.5 kmh 30.35 in1027.8 mb - 0.00 in0.0 mm 0.00 in0.0 mm
11:10 AM 13.3°F-10.4°C 2.7°F-16.3°C 62% 2.3 mph SW3.7 kmh SW 5.8 mph9.3 kmh 30.35 in1027.8 mb - 0.00 in0.0 mm 0.00 in0.0 mm
11:20 AM 13.5°F-10.3°C 2.9°F-16.2°C 62% 2.3 mph SSW3.7 kmh SSW 5.8 mph9.3 kmh 30.34 in1027.4 mb - 0.00 in0.0 mm 0.00 in0.0 mm
11:30 AM 13.9°F-10.1°C 3.3°F-15.9°C 62% 2.3 mph S3.7 kmh S 4.6 mph7.4 kmh 30.34 in1027.4 mb - 0.00 in0.0 mm 0.00 in0.0 mm
11:40 AM 14.6°F-9.7°C 4.0°F-15.6°C 62% 2.3 mph S3.7 kmh S 3.5 mph5.6 kmh 30.33 in1027.1 mb - 0.00 in0.0 mm 0.00 in0.0 mm
11:50 AM 15.4°F-9.2°C 4.3°F-15.4°C 61% 2.3 mph S3.7 kmh S 3.5 mph5.6 kmh 30.32 in1026.8 mb - 0.00 in0.0 mm 0.00 in0.0 mm
12:00 PM 16.0°F-8.9°C 4.5°F-15.3°C 60% Calm Calm 3.5 mph5.6 kmh 30.32 in1026.8 mb - 0.00 in0.0 mm 0.00 in0.0 mm
12:10 PM 16.6°F-8.6°C 4.8°F-15.1°C 59% 3.5 mph S5.6 kmh S 5.8 mph9.3 kmh 30.32 in1026.8 mb - 0.00 in0.0 mm 0.00 in0.0 mm
12:20 PM 17.2°F-8.2°C 4.9°F-15.1°C 58% 3.5 mph SSW5.6 kmh SSW 6.9 mph11.1 kmh 30.31 in1026.4 mb - 0.00 in0.0 mm 0.00 in0.0 mm
12:30 PM 18.2°F-7.7°C 5.8°F-14.6°C 58% 6.9 mph S11.1 kmh S 10.4 mph16.7 kmh 30.30 in1026.1 mb - 0.00 in0.0 mm 0.00 in0.0 mm
12:40 PM 18.8°F-7.3°C 6.1°F-14.4°C 57% 3.5 mph S5.6 kmh S 5.8 mph9.3 kmh 30.29 in1025.7 mb - 0.00 in0.0 mm 0.00 in0.0 mm
12:50 PM 19.7°F-6.8°C 6.5°F-14.2°C 56% 4.6 mph S7.4 kmh S 9.2 mph14.8 kmh 30.28 in1025.4 mb - 0.00 in0.0 mm 0.00 in0.0 mm
01:00 PM 19.9°F-6.7°C 6.7°F-14.1°C 56% 1.2 mph S1.9 kmh S 2.3 mph3.7 kmh 30.27 in1025.1 mb - 0.00 in0.0 mm 0.00 in0.0 mm
01:10 PM 20.8°F-6.2°C 7.5°F-13.6°C 56% 3.5 mph S5.6 kmh S 6.9 mph11.1 kmh 30.27 in1025.1 mb - 0.00 in0.0 mm 0.00 in0.0 mm
01:20 PM 20.5°F-6.4°C 7.2°F-13.8°C 56% 3.5 mph S5.6 kmh S 8.1 mph13.0 kmh 30.26 in1024.7 mb - 0.00 in0.0 mm 0.00 in0.0 mm
01:30 PM 21.3°F-5.9°C 8.0°F-13.3°C 56% 4.6 mph S7.4 kmh S 6.9 mph11.1 kmh 30.25 in1024.4 mb - 0.00 in0.0 mm 0.00 in0.0 mm
01:40 PM 21.6°F-5.8°C 7.9°F-13.4°C 55% 1.2 mph S1.9 kmh S 3.5 mph5.6 kmh 30.24 in1024.0 mb - 0.00 in0.0 mm 0.00 in0.0 mm
01:50 PM 22.3°F-5.4°C 8.1°F-13.3°C 54% 3.5 mph S5.6 kmh S 5.8 mph9.3 kmh 30.24 in1024.0 mb - 0.00 in0.0 mm 0.00 in0.0 mm
02:00 PM 22.3°F-5.4°C 7.8°F-13.4°C 53% 5.8 mph S9.3 kmh S 11.5 mph18.5 kmh 30.22 in1023.4 mb - 0.00 in0.0 mm 0.00 in0.0 mm
02:10 PM 22.9°F-5.1°C 8.3°F-13.2°C 53% 3.5 mph S5.6 kmh S 3.5 mph5.6 kmh 30.23 in1023.7 mb - 0.00 in0.0 mm 0.00 in0.0 mm
02:20 PM 23.1°F-4.9°C 8.1°F-13.3°C 52% 4.6 mph S7.4 kmh S 8.1 mph13.0 kmh 30.22 in1023.4 mb - 0.00 in0.0 mm 0.00 in0.0 mm
02:30 PM 23.2°F-4.9°C 8.5°F-13.1°C 53% 4.6 mph S7.4 kmh S 4.6 mph7.4 kmh 30.22 in1023.4 mb - 0.00 in0.0 mm 0.00 in0.0 mm
02:40 PM 23.8°F-4.6°C 9.2°F-12.7°C 53% 3.5 mph S5.6 kmh S 4.6 mph7.4 kmh 30.22 in1023.4 mb - 0.00 in0.0 mm 0.00 in0.0 mm
02:50 PM 24.5°F-4.2°C 9.4°F-12.6°C 52% 3.5 mph SW5.6 kmh SW 4.6 mph7.4 kmh 30.21 in1023.0 mb - 0.00 in0.0 mm 0.00 in0.0 mm
03:00 PM 24.7°F-4.1°C 9.5°F-12.5°C 52% 1.2 mph SW1.9 kmh SW 2.3 mph3.7 kmh 30.21 in1023.0 mb - 0.00 in0.0 mm 0.00 in0.0 mm
03:10 PM 25.3°F-3.7°C 10.1°F-12.2°C 52% Calm Calm -- 30.20 in1022.7 mb - 0.00 in0.0 mm 0.00 in0.0 mm
03:20 PM 25.8°F-3.4°C 10.6°F-11.9°C 52% 1.2 mph SW1.9 kmh SW 3.5 mph5.6 kmh 30.19 in1022.4 mb - 0.00 in0.0 mm 0.00 in0.0 mm
03:30 PM 26.1°F-3.3°C 10.4°F-12.0°C 51% 1.2 mph SW1.9 kmh SW -- 30.19 in1022.4 mb - 0.00 in0.0 mm 0.00 in0.0 mm
03:40 PM 26.6°F-3.0°C 10.5°F-11.9°C 50% 1.2 mph WSW1.9 kmh WSW 5.8 mph9.3 kmh 30.20 in1022.7 mb - 0.00 in0.0 mm 0.00 in0.0 mm
03:50 PM 26.9°F-2.8°C 11.2°F-11.6°C 51% 2.3 mph SSW3.7 kmh SSW 5.8 mph9.3 kmh 30.19 in1022.4 mb - 0.00 in0.0 mm 0.00 in0.0 mm
04:00 PM 27.2°F-2.7°C 11.4°F-11.4°C 51% 2.3 mph SSW3.7 kmh SSW 3.5 mph5.6 kmh 30.18 in1022.0 mb - 0.00 in0.0 mm 0.00 in0.0 mm
04:10 PM 27.6°F-2.4°C 12.3°F-10.9°C 52% Calm Calm -- 30.18 in1022.0 mb - 0.00 in0.0 mm 0.00 in0.0 mm
04:20 PM 27.3°F-2.6°C 11.9°F-11.2°C 52% 2.3 mph SW3.7 kmh SW 10.4 mph16.7 kmh 30.17 in1021.7 mb - 0.00 in0.0 mm 0.00 in0.0 mm
04:30 PM 27.2°F-2.7°C 12.3°F-10.9°C 53% 2.3 mph SW3.7 kmh SW 4.6 mph7.4 kmh 30.17 in1021.7 mb - 0.00 in0.0 mm 0.00 in0.0 mm
04:40 PM 27.3°F-2.6°C 12.8°F-10.7°C 54% Calm Calm -- 30.17 in1021.7 mb - 0.00 in0.0 mm 0.00 in0.0 mm
04:50 PM 27.2°F-2.7°C 12.7°F-10.7°C 54% 4.6 mph SW7.4 kmh SW 5.8 mph9.3 kmh 30.17 in1021.7 mb - 0.00 in0.0 mm 0.00 in0.0 mm
05:00 PM 27.1°F-2.7°C 13.1°F-10.5°C 55% 1.2 mph S1.9 kmh S 5.8 mph9.3 kmh 30.16 in1021.3 mb - 0.00 in0.0 mm 0.00 in0.0 mm
05:10 PM 27.0°F-2.8°C 13.4°F-10.3°C 56% 1.2 mph SSW1.9 kmh SSW 8.1 mph13.0 kmh 30.15 in1021.0 mb - 0.00 in0.0 mm 0.00 in0.0 mm
05:20 PM 26.8°F-2.9°C 13.6°F-10.2°C 57% 2.3 mph SW3.7 kmh SW 3.5 mph5.6 kmh 30.15 in1021.0 mb - 0.00 in0.0 mm 0.00 in0.0 mm
05:30 PM 26.6°F-3.0°C 13.8°F-10.1°C 58% Calm Calm -- 30.15 in1021.0 mb - 0.00 in0.0 mm 0.00 in0.0 mm
05:40 PM 26.3°F-3.2°C 13.9°F-10.1°C 59% Calm Calm 3.5 mph5.6 kmh 30.14 in1020.7 mb - 0.00 in0.0 mm 0.00 in0.0 mm
05:50 PM 26.1°F-3.3°C 14.1°F-9.9°C 60% Calm Calm -- 30.15 in1021.0 mb - 0.00 in0.0 mm 0.00 in0.0 mm
06:00 PM 25.8°F-3.4°C 14.2°F-9.9°C 61% Calm Calm -- 30.15 in1021.0 mb - 0.00 in0.0 mm 0.00 in0.0 mm
06:10 PM 25.6°F-3.6°C 14.4°F-9.8°C 62% Calm Calm -- 30.14 in1020.7 mb - 0.00 in0.0 mm 0.00 in0.0 mm
06:20 PM 25.6°F-3.6°C 14.7°F-9.6°C 63% Calm Calm -- 30.14 in1020.7 mb - 0.00 in0.0 mm 0.00 in0.0 mm
06:30 PM 25.2°F-3.8°C 14.3°F-9.8°C 63% Calm Calm -- 30.14 in1020.7 mb - 0.00 in0.0 mm 0.00 in0.0 mm
06:40 PM 24.9°F-3.9°C 14.8°F-9.6°C 65% Calm Calm -- 30.14 in1020.7 mb - 0.00 in0.0 mm 0.00 in0.0 mm
06:50 PM 24.8°F-4.0°C 14.7°F-9.6°C 65% Calm Calm -- 30.14 in1020.7 mb - 0.00 in0.0 mm 0.00 in0.0 mm
07:00 PM 24.8°F-4.0°C 15.0°F-9.4°C 66% Calm Calm -- 30.14 in1020.7 mb - 0.00 in0.0 mm 0.00 in0.0 mm
07:10 PM 24.8°F-4.0°C 15.1°F-9.4°C 66% Calm Calm 2.3 mph3.7 kmh 30.14 in1020.7 mb - 0.00 in0.0 mm 0.00 in0.0 mm
07:20 PM 25.1°F-3.8°C 15.3°F-9.3°C 66% 2.3 mph SW3.7 kmh SW 3.5 mph5.6 kmh 30.13 in1020.3 mb - 0.00 in0.0 mm 0.00 in0.0 mm
07:30 PM 25.5°F-3.6°C 15.4°F-9.2°C 65% Calm Calm -- 30.13 in1020.3 mb - 0.00 in0.0 mm 0.00 in0.0 mm
07:40 PM 25.7°F-3.5°C 15.5°F-9.2°C 65% Calm Calm -- 30.14 in1020.7 mb - 0.00 in0.0 mm 0.00 in0.0 mm
07:50 PM 26.4°F-3.1°C 15.8°F-9.0°C 64% 2.3 mph SW3.7 kmh SW 3.5 mph5.6 kmh 30.13 in1020.3 mb - 0.00 in0.0 mm 0.00 in0.0 mm
08:00 PM 26.5°F-3.1°C 15.6°F-9.1°C 63% 1.2 mph SW1.9 kmh SW 5.8 mph9.3 kmh 30.13 in1020.3 mb - 0.00 in0.0 mm 0.00 in0.0 mm
08:10 PM 26.4°F-3.1°C 15.5°F-9.2°C 63% 3.5 mph SW5.6 kmh SW 5.8 mph9.3 kmh 30.12 in1020.0 mb - 0.00 in0.0 mm 0.00 in0.0 mm
08:20 PM 26.4°F-3.1°C 15.5°F-9.2°C 63% 2.3 mph SW3.7 kmh SW 4.6 mph7.4 kmh 30.13 in1020.3 mb - 0.00 in0.0 mm 0.00 in0.0 mm
08:30 PM 26.4°F-3.1°C 15.5°F-9.2°C 63% 1.2 mph SW1.9 kmh SW 2.3 mph3.7 kmh 30.12 in1020.0 mb - 0.00 in0.0 mm 0.00 in0.0 mm
08:40 PM 26.4°F-3.1°C 15.5°F-9.2°C 63% 1.2 mph SW1.9 kmh SW 1.2 mph1.9 kmh 30.12 in1020.0 mb - 0.00 in0.0 mm 0.00 in0.0 mm
08:50 PM 26.3°F-3.2°C 15.8°F-9.0°C 64% Calm Calm 1.2 mph1.9 kmh 30.12 in1020.0 mb - 0.00 in0.0 mm 0.00 in0.0 mm
09:00 PM 26.3°F-3.2°C 15.8°F-9.0°C 64% 1.2 mph SW1.9 kmh SW 5.8 mph9.3 kmh 30.11 in1019.6 mb - 0.00 in0.0 mm 0.00 in0.0 mm
09:10 PM 26.3°F-3.2°C 15.7°F-9.1°C 64% 1.2 mph SSW1.9 kmh SSW 3.5 mph5.6 kmh 30.11 in1019.6 mb - 0.00 in0.0 mm 0.00 in0.0 mm
09:20 PM 26.2°F-3.2°C 16.0°F-8.9°C 65% 1.2 mph WSW1.9 kmh WSW -- 30.11 in1019.6 mb - 0.00 in0.0 mm 0.00 in0.0 mm
09:30 PM 26.0°F-3.3°C 15.8°F-9.0°C 65% 2.3 mph SW3.7 kmh SW 3.5 mph5.6 kmh 30.11 in1019.6 mb - 0.00 in0.0 mm 0.00 in0.0 mm
09:40 PM 26.1°F-3.3°C 15.9°F-8.9°C 65% 3.5 mph SW5.6 kmh SW 6.9 mph11.1 kmh 30.10 in1019.3 mb - 0.00 in0.0 mm 0.00 in0.0 mm
09:50 PM 26.1°F-3.3°C 15.9°F-8.9°C 65% Calm Calm 5.8 mph9.3 kmh 30.10 in1019.3 mb - 0.00 in0.0 mm 0.00 in0.0 mm
10:00 PM 26.1°F-3.3°C 16.3°F-8.7°C 66% 3.5 mph SW5.6 kmh SW 6.9 mph11.1 kmh 30.09 in1019.0 mb - 0.00 in0.0 mm 0.00 in0.0 mm
10:10 PM 26.1°F-3.3°C 16.3°F-8.7°C 66% 1.2 mph SW1.9 kmh SW 2.3 mph3.7 kmh 30.09 in1019.0 mb - 0.00 in0.0 mm 0.00 in0.0 mm
10:20 PM 26.3°F-3.2°C 16.5°F-8.6°C 66% Calm Calm -- 30.09 in1019.0 mb - 0.00 in0.0 mm 0.00 in0.0 mm
10:30 PM 26.2°F-3.2°C 16.4°F-8.7°C 66% Calm Calm 4.6 mph7.4 kmh 30.09 in1019.0 mb - 0.00 in0.0 mm 0.00 in0.0 mm
10:40 PM 26.1°F-3.3°C 16.6°F-8.6°C 67% 2.3 mph SW3.7 kmh SW 5.8 mph9.3 kmh 30.08 in1018.6 mb - 0.00 in0.0 mm 0.00 in0.0 mm
10:50 PM 26.1°F-3.3°C 16.6°F-8.6°C 67% 2.3 mph WSW3.7 kmh WSW 5.8 mph9.3 kmh 30.08 in1018.6 mb - 0.00 in0.0 mm 0.00 in0.0 mm
11:00 PM 25.8°F-3.4°C 16.3°F-8.7°C 67% 1.2 mph SW1.9 kmh SW 3.5 mph5.6 kmh 30.08 in1018.6 mb - 0.00 in0.0 mm 0.00 in0.0 mm
11:10 PM 25.7°F-3.5°C 16.6°F-8.6°C 68% 2.3 mph WSW3.7 kmh WSW 5.8 mph9.3 kmh 30.08 in1018.6 mb - 0.00 in0.0 mm 0.00 in0.0 mm
11:20 PM 25.7°F-3.5°C 16.5°F-8.6°C 68% Calm Calm 5.8 mph9.3 kmh 30.07 in1018.3 mb - 0.00 in0.0 mm 0.00 in0.0 mm
11:30 PM 25.5°F-3.6°C 16.4°F-8.7°C 68% 2.3 mph SW3.7 kmh SW 3.5 mph5.6 kmh 30.07 in1018.3 mb - 0.00 in0.0 mm 0.00 in0.0 mm
11:40 PM 25.3°F-3.7°C 16.2°F-8.8°C 68% Calm Calm 2.3 mph3.7 kmh 30.07 in1018.3 mb - 0.00 in0.0 mm 0.00 in0.0 mm
11:50 PM 25.2°F-3.8°C 16.5°F-8.6°C 69% 2.3 mph SW3.7 kmh SW 4.6 mph7.4 kmh 30.07 in1018.3 mb - 0.00 in0.0 mm 0.00 in0.0 mm